sensor_id;sensor_type;location;lat;lon;timestamp;temperature;humidity
45619;DHT22;31343;47.520;19.144;2024-03-06T00:00:48;8.60;99.90
45619;DHT22;31343;47.520;19.144;2024-03-06T00:03:13;8.50;99.90
45619;DHT22;31343;47.520;19.144;2024-03-06T00:05:39;8.40;99.90
45619;DHT22;31343;47.520;19.144;2024-03-06T00:08:06;8.40;99.90
45619;DHT22;31343;47.520;19.144;2024-03-06T00:10:32;8.30;99.90
45619;DHT22;31343;47.520;19.144;2024-03-06T00:12:57;8.20;99.90
45619;DHT22;31343;47.520;19.144;2024-03-06T00:15:23;8.10;99.90
45619;DHT22;31343;47.520;19.144;2024-03-06T00:17:49;8.10;99.90
45619;DHT22;31343;47.520;19.144;2024-03-06T00:20:14;8.10;99.90
45619;DHT22;31343;47.520;19.144;2024-03-06T00:22:40;8.10;99.90
45619;DHT22;31343;47.520;19.144;2024-03-06T00:25:06;8.10;99.90
45619;DHT22;31343;47.520;19.144;2024-03-06T00:27:33;8.00;99.90
45619;DHT22;31343;47.520;19.144;2024-03-06T00:29:59;7.90;99.90
45619;DHT22;31343;47.520;19.144;2024-03-06T00:32:25;7.80;99.90
45619;DHT22;31343;47.520;19.144;2024-03-06T00:34:50;7.80;99.90
45619;DHT22;31343;47.520;19.144;2024-03-06T00:37:16;7.80;99.90
45619;DHT22;31343;47.520;19.144;2024-03-06T00:39:43;7.70;99.90
45619;DHT22;31343;47.520;19.144;2024-03-06T00:42:08;7.80;99.90
45619;DHT22;31343;47.520;19.144;2024-03-06T00:44:35;7.80;99.90
45619;DHT22;31343;47.520;19.144;2024-03-06T00:47:01;7.70;99.90
45619;DHT22;31343;47.520;19.144;2024-03-06T00:49:26;7.60;99.90
45619;DHT22;31343;47.520;19.144;2024-03-06T00:51:52;7.60;99.90
45619;DHT22;31343;47.520;19.144;2024-03-06T00:54:18;7.60;99.90
45619;DHT22;31343;47.520;19.144;2024-03-06T00:56:43;7.50;99.90
45619;DHT22;31343;47.520;19.144;2024-03-06T00:59:09;7.50;99.90
45619;DHT22;31343;47.520;19.144;2024-03-06T01:01:36;7.50;99.90
45619;DHT22;31343;47.520;19.144;2024-03-06T01:04:02;7.40;99.90
45619;DHT22;31343;47.520;19.144;2024-03-06T01:06:27;7.40;99.90
45619;DHT22;31343;47.520;19.144;2024-03-06T01:08:53;7.30;99.90
45619;DHT22;31343;47.520;19.144;2024-03-06T01:11:20;7.30;99.90
45619;DHT22;31343;47.520;19.144;2024-03-06T01:13:45;7.30;99.90
45619;DHT22;31343;47.520;19.144;2024-03-06T01:16:11;7.20;99.90
45619;DHT22;31343;47.520;19.144;2024-03-06T01:18:37;7.20;99.90
45619;DHT22;31343;47.520;19.144;2024-03-06T01:21:02;7.30;99.90
45619;DHT22;31343;47.520;19.144;2024-03-06T01:23:29;7.30;99.90
45619;DHT22;31343;47.520;19.144;2024-03-06T01:25:54;7.20;99.90
45619;DHT22;31343;47.520;19.144;2024-03-06T01:28:20;7.30;99.90
45619;DHT22;31343;47.520;19.144;2024-03-06T01:30:46;7.20;99.90
45619;DHT22;31343;47.520;19.144;2024-03-06T01:33:11;7.20;99.90
45619;DHT22;31343;47.520;19.144;2024-03-06T01:35:37;7.10;99.90
45619;DHT22;31343;47.520;19.144;2024-03-06T01:38:04;7.10;99.90
45619;DHT22;31343;47.520;19.144;2024-03-06T01:40:29;7.10;99.90
45619;DHT22;31343;47.520;19.144;2024-03-06T01:42:55;7.00;99.90
45619;DHT22;31343;47.520;19.144;2024-03-06T01:45:21;7.00;99.90
45619;DHT22;31343;47.520;19.144;2024-03-06T01:47:47;6.90;99.90
45619;DHT22;31343;47.520;19.144;2024-03-06T01:50:13;6.90;99.90
45619;DHT22;31343;47.520;19.144;2024-03-06T01:52:41;6.90;99.90
45619;DHT22;31343;47.520;19.144;2024-03-06T01:55:08;6.80;99.90
45619;DHT22;31343;47.520;19.144;2024-03-06T01:57:34;6.70;99.90
45619;DHT22;31343;47.520;19.144;2024-03-06T02:00:02;6.70;99.90
45619;DHT22;31343;47.520;19.144;2024-03-06T02:02:28;6.70;99.90
45619;DHT22;31343;47.520;19.144;2024-03-06T02:04:54;6.60;99.90
45619;DHT22;31343;47.520;19.144;2024-03-06T02:07:20;6.60;99.90
45619;DHT22;31343;47.520;19.144;2024-03-06T02:09:47;6.70;99.90
45619;DHT22;31343;47.520;19.144;2024-03-06T02:12:14;6.60;99.90
45619;DHT22;31343;47.520;19.144;2024-03-06T02:14:40;6.70;99.90
45619;DHT22;31343;47.520;19.144;2024-03-06T02:17:05;6.60;99.90
45619;DHT22;31343;47.520;19.144;2024-03-06T02:19:42;6.60;99.90
45619;DHT22;31343;47.520;19.144;2024-03-06T02:22:10;6.60;99.90
45619;DHT22;31343;47.520;19.144;2024-03-06T02:24:36;6.60;99.90
45619;DHT22;31343;47.520;19.144;2024-03-06T02:27:03;6.60;99.90
45619;DHT22;31343;47.520;19.144;2024-03-06T02:29:33;6.50;99.90
45619;DHT22;31343;47.520;19.144;2024-03-06T02:31:59;6.50;99.90
45619;DHT22;31343;47.520;19.144;2024-03-06T02:34:28;6.60;99.90
45619;DHT22;31343;47.520;19.144;2024-03-06T02:36:54;6.40;99.90
45619;DHT22;31343;47.520;19.144;2024-03-06T02:39:20;6.40;99.90
45619;DHT22;31343;47.520;19.144;2024-03-06T02:41:47;6.40;99.90
45619;DHT22;31343;47.520;19.144;2024-03-06T02:44:12;6.40;99.90
45619;DHT22;31343;47.520;19.144;2024-03-06T02:46:39;6.40;99.90
45619;DHT22;31343;47.520;19.144;2024-03-06T02:49:04;6.40;99.90
45619;DHT22;31343;47.520;19.144;2024-03-06T02:51:31;6.40;99.90
45619;DHT22;31343;47.520;19.144;2024-03-06T02:53:57;6.30;99.90
45619;DHT22;31343;47.520;19.144;2024-03-06T02:56:22;6.30;99.90
45619;DHT22;31343;47.520;19.144;2024-03-06T02:58:48;6.30;99.90
45619;DHT22;31343;47.520;19.144;2024-03-06T03:01:14;6.30;99.90
45619;DHT22;31343;47.520;19.144;2024-03-06T03:03:43;6.30;99.90
45619;DHT22;31343;47.520;19.144;2024-03-06T03:06:10;6.20;99.90
45619;DHT22;31343;47.520;19.144;2024-03-06T03:08:37;6.20;99.90
45619;DHT22;31343;47.520;19.144;2024-03-06T03:11:03;6.10;99.90
45619;DHT22;31343;47.520;19.144;2024-03-06T03:13:29;6.20;99.90
45619;DHT22;31343;47.520;19.144;2024-03-06T03:15:55;6.20;99.90
45619;DHT22;31343;47.520;19.144;2024-03-06T03:18:21;6.20;99.90
45619;DHT22;31343;47.520;19.144;2024-03-06T03:20:47;6.00;99.90
45619;DHT22;31343;47.520;19.144;2024-03-06T03:23:12;6.00;99.90
45619;DHT22;31343;47.520;19.144;2024-03-06T03:25:40;6.00;99.90
45619;DHT22;31343;47.520;19.144;2024-03-06T03:28:06;6.00;99.90
45619;DHT22;31343;47.520;19.144;2024-03-06T03:30:32;6.00;99.90
45619;DHT22;31343;47.520;19.144;2024-03-06T03:32:58;5.90;99.90
45619;DHT22;31343;47.520;19.144;2024-03-06T03:35:24;5.90;99.90
45619;DHT22;31343;47.520;19.144;2024-03-06T03:37:52;5.80;99.90
45619;DHT22;31343;47.520;19.144;2024-03-06T03:40:18;5.90;99.90
45619;DHT22;31343;47.520;19.144;2024-03-06T03:42:44;5.90;99.90
45619;DHT22;31343;47.520;19.144;2024-03-06T03:45:10;5.90;99.90
45619;DHT22;31343;47.520;19.144;2024-03-06T03:47:37;5.90;99.90
45619;DHT22;31343;47.520;19.144;2024-03-06T03:50:03;5.90;99.90
45619;DHT22;31343;47.520;19.144;2024-03-06T03:52:29;5.80;99.90
45619;DHT22;31343;47.520;19.144;2024-03-06T03:54:55;5.80;99.90
45619;DHT22;31343;47.520;19.144;2024-03-06T03:57:21;5.70;99.90
45619;DHT22;31343;47.520;19.144;2024-03-06T03:59:46;5.70;99.90
45619;DHT22;31343;47.520;19.144;2024-03-06T04:02:12;5.60;99.90
45619;DHT22;31343;47.520;19.144;2024-03-06T04:04:38;5.50;99.90
45619;DHT22;31343;47.520;19.144;2024-03-06T04:07:03;5.40;99.90
45619;DHT22;31343;47.520;19.144;2024-03-06T04:09:32;5.40;99.90
45619;DHT22;31343;47.520;19.144;2024-03-06T04:12:01;5.40;99.90
45619;DHT22;31343;47.520;19.144;2024-03-06T04:14:26;5.50;99.90
45619;DHT22;31343;47.520;19.144;2024-03-06T04:16:52;5.50;99.90
45619;DHT22;31343;47.520;19.144;2024-03-06T04:19:17;5.50;99.90
45619;DHT22;31343;47.520;19.144;2024-03-06T04:21:44;5.50;99.90
45619;DHT22;31343;47.520;19.144;2024-03-06T04:24:10;5.50;99.90
45619;DHT22;31343;47.520;19.144;2024-03-06T04:26:36;5.50;99.90
45619;DHT22;31343;47.520;19.144;2024-03-06T04:29:01;5.50;99.90
45619;DHT22;31343;47.520;19.144;2024-03-06T04:31:28;5.50;99.90
45619;DHT22;31343;47.520;19.144;2024-03-06T04:33:54;5.50;99.90
45619;DHT22;31343;47.520;19.144;2024-03-06T04:36:19;5.50;99.90
45619;DHT22;31343;47.520;19.144;2024-03-06T04:38:45;5.50;99.90
45619;DHT22;31343;47.520;19.144;2024-03-06T04:41:11;5.50;99.90
45619;DHT22;31343;47.520;19.144;2024-03-06T04:43:36;5.50;99.90
45619;DHT22;31343;47.520;19.144;2024-03-06T04:46:03;5.40;99.90
45619;DHT22;31343;47.520;19.144;2024-03-06T04:48:29;5.40;99.90
45619;DHT22;31343;47.520;19.144;2024-03-06T04:50:55;5.30;99.90
45619;DHT22;31343;47.520;19.144;2024-03-06T04:53:20;5.30;99.90
45619;DHT22;31343;47.520;19.144;2024-03-06T04:55:46;5.30;99.90
45619;DHT22;31343;47.520;19.144;2024-03-06T04:58:13;5.40;99.90
45619;DHT22;31343;47.520;19.144;2024-03-06T05:00:39;5.40;99.90
45619;DHT22;31343;47.520;19.144;2024-03-06T05:03:05;5.30;99.90
45619;DHT22;31343;47.520;19.144;2024-03-06T05:05:31;5.20;99.90
45619;DHT22;31343;47.520;19.144;2024-03-06T05:07:57;5.30;99.90
45619;DHT22;31343;47.520;19.144;2024-03-06T05:10:23;5.30;99.90
45619;DHT22;31343;47.520;19.144;2024-03-06T05:12:49;5.30;99.90
45619;DHT22;31343;47.520;19.144;2024-03-06T05:15:16;5.30;99.90
45619;DHT22;31343;47.520;19.144;2024-03-06T05:17:41;5.40;99.90
45619;DHT22;31343;47.520;19.144;2024-03-06T05:20:08;5.40;99.90
45619;DHT22;31343;47.520;19.144;2024-03-06T05:22:33;5.30;99.90
45619;DHT22;31343;47.520;19.144;2024-03-06T05:24:59;5.40;99.90
45619;DHT22;31343;47.520;19.144;2024-03-06T05:27:25;5.40;99.90
45619;DHT22;31343;47.520;19.144;2024-03-06T05:29:51;5.40;99.90
45619;DHT22;31343;47.520;19.144;2024-03-06T05:32:17;5.50;99.90
45619;DHT22;31343;47.520;19.144;2024-03-06T05:34:43;5.50;99.90
45619;DHT22;31343;47.520;19.144;2024-03-06T05:37:10;5.50;99.90
45619;DHT22;31343;47.520;19.144;2024-03-06T05:39:36;5.50;99.90
45619;DHT22;31343;47.520;19.144;2024-03-06T05:42:04;5.60;99.90
45619;DHT22;31343;47.520;19.144;2024-03-06T05:44:33;5.60;99.90
45619;DHT22;31343;47.520;19.144;2024-03-06T05:46:59;5.70;99.90
45619;DHT22;31343;47.520;19.144;2024-03-06T05:49:26;5.70;99.90
45619;DHT22;31343;47.520;19.144;2024-03-06T05:51:52;5.70;99.90
45619;DHT22;31343;47.520;19.144;2024-03-06T05:54:19;5.80;99.90
45619;DHT22;31343;47.520;19.144;2024-03-06T05:56:45;5.90;99.90
45619;DHT22;31343;47.520;19.144;2024-03-06T05:59:12;6.00;99.90
45619;DHT22;31343;47.520;19.144;2024-03-06T06:01:38;6.10;99.90
45619;DHT22;31343;47.520;19.144;2024-03-06T06:04:04;6.20;99.90
45619;DHT22;31343;47.520;19.144;2024-03-06T06:06:29;6.40;99.90
45619;DHT22;31343;47.520;19.144;2024-03-06T06:08:55;6.60;99.90
45619;DHT22;31343;47.520;19.144;2024-03-06T06:11:21;6.90;99.90
45619;DHT22;31343;47.520;19.144;2024-03-06T06:13:46;7.20;99.90
45619;DHT22;31343;47.520;19.144;2024-03-06T06:16:12;7.60;99.90
45619;DHT22;31343;47.520;19.144;2024-03-06T06:18:40;8.00;99.90
45619;DHT22;31343;47.520;19.144;2024-03-06T06:21:07;8.30;99.90
45619;DHT22;31343;47.520;19.144;2024-03-06T06:23:34;8.70;99.90
45619;DHT22;31343;47.520;19.144;2024-03-06T06:25:59;9.00;99.90
45619;DHT22;31343;47.520;19.144;2024-03-06T06:28:25;9.30;99.90
45619;DHT22;31343;47.520;19.144;2024-03-06T06:30:51;9.30;99.90
45619;DHT22;31343;47.520;19.144;2024-03-06T06:33:19;9.30;99.90
45619;DHT22;31343;47.520;19.144;2024-03-06T06:35:46;9.50;99.90
45619;DHT22;31343;47.520;19.144;2024-03-06T06:38:12;10.10;99.90
45619;DHT22;31343;47.520;19.144;2024-03-06T06:40:38;10.50;99.90
45619;DHT22;31343;47.520;19.144;2024-03-06T06:43:03;10.40;99.90
45619;DHT22;31343;47.520;19.144;2024-03-06T06:45:29;10.80;99.90
45619;DHT22;31343;47.520;19.144;2024-03-06T06:47:55;11.10;99.90
45619;DHT22;31343;47.520;19.144;2024-03-06T06:50:20;10.80;99.90
45619;DHT22;31343;47.520;19.144;2024-03-06T06:52:51;10.00;99.90
45619;DHT22;31343;47.520;19.144;2024-03-06T06:55:17;9.90;99.90
45619;DHT22;31343;47.520;19.144;2024-03-06T06:57:43;9.60;99.90
45619;DHT22;31343;47.520;19.144;2024-03-06T07:00:10;9.50;99.90
45619;DHT22;31343;47.520;19.144;2024-03-06T07:02:39;9.60;99.90
45619;DHT22;31343;47.520;19.144;2024-03-06T07:05:05;9.40;99.90
45619;DHT22;31343;47.520;19.144;2024-03-06T07:07:31;9.50;99.90
45619;DHT22;31343;47.520;19.144;2024-03-06T07:09:57;9.60;99.90
45619;DHT22;31343;47.520;19.144;2024-03-06T07:12:23;9.90;99.90
45619;DHT22;31343;47.520;19.144;2024-03-06T07:14:48;10.50;99.90
45619;DHT22;31343;47.520;19.144;2024-03-06T07:17:14;10.70;99.90
45619;DHT22;31343;47.520;19.144;2024-03-06T07:19:40;11.20;99.90
45619;DHT22;31343;47.520;19.144;2024-03-06T07:22:05;11.30;99.90
45619;DHT22;31343;47.520;19.144;2024-03-06T07:24:31;11.00;99.90
45619;DHT22;31343;47.520;19.144;2024-03-06T07:26:57;11.10;99.90
45619;DHT22;31343;47.520;19.144;2024-03-06T07:29:22;11.00;99.90
45619;DHT22;31343;47.520;19.144;2024-03-06T07:31:48;10.60;99.90
45619;DHT22;31343;47.520;19.144;2024-03-06T07:34:14;10.60;99.90
45619;DHT22;31343;47.520;19.144;2024-03-06T07:36:40;10.50;99.90
45619;DHT22;31343;47.520;19.144;2024-03-06T07:39:06;10.60;99.90
45619;DHT22;31343;47.520;19.144;2024-03-06T07:41:32;10.80;99.90
45619;DHT22;31343;47.520;19.144;2024-03-06T07:43:59;11.10;99.90
45619;DHT22;31343;47.520;19.144;2024-03-06T07:46:26;11.70;99.90
45619;DHT22;31343;47.520;19.144;2024-03-06T07:48:51;12.30;99.90
45619;DHT22;31343;47.520;19.144;2024-03-06T07:51:17;12.30;99.90
45619;DHT22;31343;47.520;19.144;2024-03-06T07:53:43;12.50;99.90
45619;DHT22;31343;47.520;19.144;2024-03-06T07:56:11;12.70;99.90
45619;DHT22;31343;47.520;19.144;2024-03-06T07:58:38;13.10;99.90
45619;DHT22;31343;47.520;19.144;2024-03-06T08:01:03;13.30;99.90
45619;DHT22;31343;47.520;19.144;2024-03-06T08:03:29;13.10;99.90
45619;DHT22;31343;47.520;19.144;2024-03-06T08:05:55;13.30;99.90
45619;DHT22;31343;47.520;19.144;2024-03-06T08:08:21;13.00;99.90
45619;DHT22;31343;47.520;19.144;2024-03-06T08:10:47;12.60;99.90
45619;DHT22;31343;47.520;19.144;2024-03-06T08:13:13;12.90;99.90
45619;DHT22;31343;47.520;19.144;2024-03-06T08:15:39;13.10;99.90
45619;DHT22;31343;47.520;19.144;2024-03-06T08:18:06;13.30;99.90
45619;DHT22;31343;47.520;19.144;2024-03-06T08:20:31;13.30;99.90
45619;DHT22;31343;47.520;19.144;2024-03-06T08:22:59;13.40;99.90
45619;DHT22;31343;47.520;19.144;2024-03-06T08:25:24;13.50;99.90
45619;DHT22;31343;47.520;19.144;2024-03-06T08:27:50;13.60;99.90
45619;DHT22;31343;47.520;19.144;2024-03-06T08:30:16;13.60;99.90
45619;DHT22;31343;47.520;19.144;2024-03-06T08:32:42;13.80;99.90
45619;DHT22;31343;47.520;19.144;2024-03-06T08:35:10;14.10;99.90
45619;DHT22;31343;47.520;19.144;2024-03-06T08:37:40;14.30;99.90
45619;DHT22;31343;47.520;19.144;2024-03-06T08:40:06;14.40;99.90
45619;DHT22;31343;47.520;19.144;2024-03-06T08:42:43;14.60;99.90
45619;DHT22;31343;47.520;19.144;2024-03-06T08:45:09;14.50;99.90
45619;DHT22;31343;47.520;19.144;2024-03-06T08:47:36;14.60;99.90
45619;DHT22;31343;47.520;19.144;2024-03-06T08:50:02;14.70;99.90
45619;DHT22;31343;47.520;19.144;2024-03-06T08:52:28;14.70;99.90
45619;DHT22;31343;47.520;19.144;2024-03-06T08:54:55;14.80;99.90
45619;DHT22;31343;47.520;19.144;2024-03-06T08:57:20;14.70;99.90
45619;DHT22;31343;47.520;19.144;2024-03-06T08:59:47;14.60;99.90
45619;DHT22;31343;47.520;19.144;2024-03-06T09:02:15;14.90;99.90
45619;DHT22;31343;47.520;19.144;2024-03-06T09:04:42;14.80;99.90
45619;DHT22;31343;47.520;19.144;2024-03-06T09:07:08;14.60;99.90
45619;DHT22;31343;47.520;19.144;2024-03-06T09:09:35;14.80;99.90
45619;DHT22;31343;47.520;19.144;2024-03-06T09:12:01;14.50;99.90
45619;DHT22;31343;47.520;19.144;2024-03-06T09:14:26;14.80;99.90
45619;DHT22;31343;47.520;19.144;2024-03-06T09:16:52;14.90;99.90
45619;DHT22;31343;47.520;19.144;2024-03-06T09:19:18;14.90;99.90
45619;DHT22;31343;47.520;19.144;2024-03-06T09:21:43;14.90;99.90
45619;DHT22;31343;47.520;19.144;2024-03-06T09:24:09;14.80;99.90
45619;DHT22;31343;47.520;19.144;2024-03-06T09:26:34;14.70;99.90
45619;DHT22;31343;47.520;19.144;2024-03-06T09:29:00;15.00;99.90
45619;DHT22;31343;47.520;19.144;2024-03-06T09:31:26;15.10;99.80
45619;DHT22;31343;47.520;19.144;2024-03-06T09:33:53;15.30;99.50
45619;DHT22;31343;47.520;19.144;2024-03-06T09:36:19;15.40;99.70
45619;DHT22;31343;47.520;19.144;2024-03-06T09:38:44;15.50;99.70
45619;DHT22;31343;47.520;19.144;2024-03-06T09:41:10;15.30;98.70
45619;DHT22;31343;47.520;19.144;2024-03-06T09:43:36;15.30;99.10
45619;DHT22;31343;47.520;19.144;2024-03-06T09:46:02;15.30;98.40
45619;DHT22;31343;47.520;19.144;2024-03-06T09:48:29;15.40;98.70
45619;DHT22;31343;47.520;19.144;2024-03-06T09:51:01;15.50;98.50
45619;DHT22;31343;47.520;19.144;2024-03-06T09:53:30;15.60;97.90
45619;DHT22;31343;47.520;19.144;2024-03-06T09:55:56;15.50;97.90
45619;DHT22;31343;47.520;19.144;2024-03-06T09:58:24;15.60;98.70
45619;DHT22;31343;47.520;19.144;2024-03-06T10:00:50;15.70;97.80
45619;DHT22;31343;47.520;19.144;2024-03-06T10:03:17;15.70;98.10
45619;DHT22;31343;47.520;19.144;2024-03-06T10:05:42;15.80;98.40
45619;DHT22;31343;47.520;19.144;2024-03-06T10:08:09;15.70;97.90
45619;DHT22;31343;47.520;19.144;2024-03-06T10:10:35;16.00;96.50
45619;DHT22;31343;47.520;19.144;2024-03-06T10:13:02;16.00;96.20
45619;DHT22;31343;47.520;19.144;2024-03-06T10:15:28;15.60;96.50
45619;DHT22;31343;47.520;19.144;2024-03-06T10:18:13;15.40;97.50
45619;DHT22;31343;47.520;19.144;2024-03-06T10:20:39;15.60;98.00
45619;DHT22;31343;47.520;19.144;2024-03-06T10:23:05;15.80;97.50
45619;DHT22;31343;47.520;19.144;2024-03-06T10:25:31;16.20;97.10
45619;DHT22;31343;47.520;19.144;2024-03-06T10:28:10;16.60;96.00
45619;DHT22;31343;47.520;19.144;2024-03-06T10:30:41;16.50;95.20
45619;DHT22;31343;47.520;19.144;2024-03-06T10:33:11;16.80;95.10
45619;DHT22;31343;47.520;19.144;2024-03-06T10:35:39;16.80;94.90
45619;DHT22;31343;47.520;19.144;2024-03-06T10:38:07;17.10;94.70
45619;DHT22;31343;47.520;19.144;2024-03-06T10:40:35;17.20;94.00
45619;DHT22;31343;47.520;19.144;2024-03-06T10:43:02;17.50;94.20
45619;DHT22;31343;47.520;19.144;2024-03-06T10:48:09;17.30;94.30
45619;DHT22;31343;47.520;19.144;2024-03-06T10:50:41;17.30;93.60
45619;DHT22;31343;47.520;19.144;2024-03-06T10:53:15;17.30;93.70
45619;DHT22;31343;47.520;19.144;2024-03-06T10:55:43;17.10;93.50
45619;DHT22;31343;47.520;19.144;2024-03-06T10:58:13;17.20;94.20
45619;DHT22;31343;47.520;19.144;2024-03-06T11:00:46;16.40;94.40
45619;DHT22;31343;47.520;19.144;2024-03-06T11:03:13;16.80;95.30
45619;DHT22;31343;47.520;19.144;2024-03-06T11:05:40;17.20;94.90
45619;DHT22;31343;47.520;19.144;2024-03-06T11:08:07;17.60;94.40
45619;DHT22;31343;47.520;19.144;2024-03-06T11:10:35;17.80;93.20
45619;DHT22;31343;47.520;19.144;2024-03-06T11:13:02;17.20;93.20
45619;DHT22;31343;47.520;19.144;2024-03-06T11:15:28;16.90;93.50
45619;DHT22;31343;47.520;19.144;2024-03-06T11:17:54;16.80;94.40
45619;DHT22;31343;47.520;19.144;2024-03-06T11:20:20;16.40;94.20
45619;DHT22;31343;47.520;19.144;2024-03-06T11:28:23;16.90;94.60
45619;DHT22;31343;47.520;19.144;2024-03-06T11:31:03;17.40;94.00
45619;DHT22;31343;47.520;19.144;2024-03-06T11:33:39;17.60;93.20
45619;DHT22;31343;47.520;19.144;2024-03-06T11:36:33;17.70;93.10
45619;DHT22;31343;47.520;19.144;2024-03-06T11:39:02;17.60;93.20
45619;DHT22;31343;47.520;19.144;2024-03-06T11:44:12;17.40;93.10
45619;DHT22;31343;47.520;19.144;2024-03-06T11:46:45;17.10;93.60
45619;DHT22;31343;47.520;19.144;2024-03-06T11:49:33;17.20;93.40
45619;DHT22;31343;47.520;19.144;2024-03-06T11:52:04;17.20;93.40
45619;DHT22;31343;47.520;19.144;2024-03-06T11:54:31;16.70;92.90
45619;DHT22;31343;47.520;19.144;2024-03-06T11:57:02;16.30;93.50
45619;DHT22;31343;47.520;19.144;2024-03-06T11:59:29;16.30;94.10
45619;DHT22;31343;47.520;19.144;2024-03-06T12:01:57;16.40;94.30
45619;DHT22;31343;47.520;19.144;2024-03-06T12:04:24;16.20;95.20
45619;DHT22;31343;47.520;19.144;2024-03-06T12:06:50;16.20;95.20
45619;DHT22;31343;47.520;19.144;2024-03-06T12:09:15;16.50;95.50
45619;DHT22;31343;47.520;19.144;2024-03-06T12:11:42;16.60;95.30
45619;DHT22;31343;47.520;19.144;2024-03-06T12:14:18;16.40;94.90
45619;DHT22;31343;47.520;19.144;2024-03-06T12:16:54;16.20;95.40
45619;DHT22;31343;47.520;19.144;2024-03-06T12:19:21;16.40;96.40
45619;DHT22;31343;47.520;19.144;2024-03-06T12:21:47;16.50;95.00
45619;DHT22;31343;47.520;19.144;2024-03-06T12:24:16;16.40;94.40
45619;DHT22;31343;47.520;19.144;2024-03-06T12:26:44;16.30;94.70
45619;DHT22;31343;47.520;19.144;2024-03-06T12:29:11;16.40;94.80
45619;DHT22;31343;47.520;19.144;2024-03-06T12:31:38;16.30;94.30
45619;DHT22;31343;47.520;19.144;2024-03-06T12:34:05;16.40;94.50
45619;DHT22;31343;47.520;19.144;2024-03-06T12:36:32;16.40;93.90
45619;DHT22;31343;47.520;19.144;2024-03-06T12:39:03;16.30;94.60
45619;DHT22;31343;47.520;19.144;2024-03-06T12:41:29;16.80;94.40
45619;DHT22;31343;47.520;19.144;2024-03-06T12:43:55;18.10;93.40
45619;DHT22;31343;47.520;19.144;2024-03-06T12:46:22;19.60;90.90
45619;DHT22;31343;47.520;19.144;2024-03-06T12:48:48;20.20;86.10
45619;DHT22;31343;47.520;19.144;2024-03-06T12:51:13;20.70;86.70
45619;DHT22;31343;47.520;19.144;2024-03-06T12:53:39;21.40;85.30
45619;DHT22;31343;47.520;19.144;2024-03-06T12:56:06;21.80;82.20
45619;DHT22;31343;47.520;19.144;2024-03-06T12:58:33;22.10;79.90
45619;DHT22;31343;47.520;19.144;2024-03-06T13:01:00;21.40;79.80
45619;DHT22;31343;47.520;19.144;2024-03-06T13:03:27;20.80;81.50
45619;DHT22;31343;47.520;19.144;2024-03-06T13:05:52;20.60;81.70
45619;DHT22;31343;47.520;19.144;2024-03-06T13:08:18;20.40;81.30
45619;DHT22;31343;47.520;19.144;2024-03-06T13:10:44;20.50;81.70
45619;DHT22;31343;47.520;19.144;2024-03-06T13:13:10;21.30;81.90
45619;DHT22;31343;47.520;19.144;2024-03-06T13:15:36;22.00;79.90
45619;DHT22;31343;47.520;19.144;2024-03-06T13:18:03;22.40;77.10
45619;DHT22;31343;47.520;19.144;2024-03-06T13:20:29;22.50;76.70
45619;DHT22;31343;47.520;19.144;2024-03-06T13:22:55;22.80;76.70
45619;DHT22;31343;47.520;19.144;2024-03-06T13:25:21;22.80;73.20
45619;DHT22;31343;47.520;19.144;2024-03-06T13:27:46;22.80;75.30
45619;DHT22;31343;47.520;19.144;2024-03-06T13:30:12;22.30;75.30
45619;DHT22;31343;47.520;19.144;2024-03-06T13:32:38;21.40;76.40
45619;DHT22;31343;47.520;19.144;2024-03-06T13:35:05;21.00;78.60
45619;DHT22;31343;47.520;19.144;2024-03-06T13:37:41;20.50;79.90
45619;DHT22;31343;47.520;19.144;2024-03-06T13:40:08;19.70;84.20
45619;DHT22;31343;47.520;19.144;2024-03-06T13:42:36;19.00;89.00
45619;DHT22;31343;47.520;19.144;2024-03-06T13:45:03;18.70;91.10
45619;DHT22;31343;47.520;19.144;2024-03-06T13:47:30;17.50;92.60
45619;DHT22;31343;47.520;19.144;2024-03-06T13:49:56;17.10;94.60
45619;DHT22;31343;47.520;19.144;2024-03-06T13:52:22;16.70;95.60
45619;DHT22;31343;47.520;19.144;2024-03-06T13:54:49;16.40;97.50
45619;DHT22;31343;47.520;19.144;2024-03-06T13:57:15;15.90;98.80
45619;DHT22;31343;47.520;19.144;2024-03-06T13:59:41;15.60;99.90
45619;DHT22;31343;47.520;19.144;2024-03-06T14:02:08;15.20;99.90
45619;DHT22;31343;47.520;19.144;2024-03-06T14:04:34;15.10;99.90
45619;DHT22;31343;47.520;19.144;2024-03-06T14:07:00;15.10;99.90
45619;DHT22;31343;47.520;19.144;2024-03-06T14:09:26;15.00;99.90
45619;DHT22;31343;47.520;19.144;2024-03-06T14:11:53;15.00;99.90
45619;DHT22;31343;47.520;19.144;2024-03-06T14:14:19;14.70;99.90
45619;DHT22;31343;47.520;19.144;2024-03-06T14:16:45;14.60;99.90
45619;DHT22;31343;47.520;19.144;2024-03-06T14:19:12;14.50;99.90
45619;DHT22;31343;47.520;19.144;2024-03-06T14:21:37;14.30;99.90
45619;DHT22;31343;47.520;19.144;2024-03-06T14:24:04;14.00;99.90
45619;DHT22;31343;47.520;19.144;2024-03-06T14:26:33;13.90;99.90
45619;DHT22;31343;47.520;19.144;2024-03-06T14:29:00;13.90;99.90
45619;DHT22;31343;47.520;19.144;2024-03-06T14:31:25;14.10;99.90
45619;DHT22;31343;47.520;19.144;2024-03-06T14:33:52;14.10;99.90
45619;DHT22;31343;47.520;19.144;2024-03-06T14:36:17;14.20;99.90
45619;DHT22;31343;47.520;19.144;2024-03-06T14:38:43;14.20;99.90
45619;DHT22;31343;47.520;19.144;2024-03-06T14:41:12;14.20;99.90
45619;DHT22;31343;47.520;19.144;2024-03-06T14:43:38;14.30;99.90
45619;DHT22;31343;47.520;19.144;2024-03-06T14:46:05;14.40;99.90
45619;DHT22;31343;47.520;19.144;2024-03-06T14:48:32;14.50;99.90
45619;DHT22;31343;47.520;19.144;2024-03-06T14:50:57;14.40;99.90
45619;DHT22;31343;47.520;19.144;2024-03-06T14:53:23;14.50;99.90
45619;DHT22;31343;47.520;19.144;2024-03-06T14:55:48;14.50;99.90
45619;DHT22;31343;47.520;19.144;2024-03-06T14:58:15;14.50;99.90
45619;DHT22;31343;47.520;19.144;2024-03-06T15:00:41;14.60;99.90
45619;DHT22;31343;47.520;19.144;2024-03-06T15:03:06;14.70;99.90
45619;DHT22;31343;47.520;19.144;2024-03-06T15:05:34;14.70;99.90
45619;DHT22;31343;47.520;19.144;2024-03-06T15:07:59;14.70;99.90
45619;DHT22;31343;47.520;19.144;2024-03-06T15:10:25;14.90;99.90
45619;DHT22;31343;47.520;19.144;2024-03-06T15:12:51;14.90;99.90
45619;DHT22;31343;47.520;19.144;2024-03-06T15:15:17;15.00;99.90
45619;DHT22;31343;47.520;19.144;2024-03-06T15:17:42;15.10;99.90
45619;DHT22;31343;47.520;19.144;2024-03-06T15:20:10;15.10;99.90
45619;DHT22;31343;47.520;19.144;2024-03-06T15:22:37;15.10;99.90
45619;DHT22;31343;47.520;19.144;2024-03-06T15:25:10;15.10;99.90
45619;DHT22;31343;47.520;19.144;2024-03-06T15:27:37;15.00;99.90
45619;DHT22;31343;47.520;19.144;2024-03-06T15:30:09;14.70;99.90